Time;durP1;ratioP1;P1;durP2;ratioP2;P2;SDS_P1;SDS_P2;PMS_P1;PMS_P2;Temp;Humidity;BMP_temperature;BMP_pressure;BME280_temperature;BME280_humidity;BME280_pressure;Samples;Min_cycle;Max_cycle;Signal;HPM_P1;HPM_P2
2022/10/09 00:01:05;;;;;;;;;;;5.60;99.90;;;;;;4962687;28;19933;-74
2022/10/09 00:03:31;;;;;;;;;;;5.60;99.90;;;;;;4940723;28;19922;-73
2022/10/09 00:05:57;;;;;;;;;;;5.60;99.90;;;;;;4958980;28;19940;-74
2022/10/09 00:08:23;;;;;;;;;;;5.50;99.90;;;;;;4949319;28;20336;-74
2022/10/09 00:10:49;;;;;;;;;;;5.50;99.90;;;;;;4956408;28;19918;-73
2022/10/09 00:13:14;;;;;;;;;;;5.50;99.90;;;;;;4967106;28;20306;-74
2022/10/09 00:15:41;;;;;;;;;;;5.40;99.90;;;;;;4978326;28;19985;-75
2022/10/09 00:18:08;;;;;;;;;;;5.40;99.90;;;;;;4965827;28;19918;-75
2022/10/09 00:20:37;;;;;;;;;;;5.30;99.90;;;;;;4960675;28;20397;-75
2022/10/09 00:23:03;;;;;;;;;;;5.30;99.90;;;;;;4944600;28;19918;-75
2022/10/09 00:25:28;;;;;;;;;;;5.30;99.90;;;;;;4968714;28;19914;-74
2022/10/09 00:27:55;;;;;;;;;;;5.30;99.90;;;;;;4975354;28;19917;-74
2022/10/09 00:30:21;;;;;;;;;;;5.20;99.90;;;;;;4617489;28;10000209;-73
2022/10/09 00:32:46;;;;;;;;;;;5.20;99.90;;;;;;4959285;28;19914;-74
2022/10/09 00:35:12;;;;;;;;;;;5.20;99.90;;;;;;4961465;28;19918;-74
2022/10/09 00:37:37;;;;;;;;;;;5.10;99.90;;;;;;4961815;28;19914;-74
2022/10/09 00:40:03;;;;;;;;;;;5.10;99.90;;;;;;4967951;28;20321;-74
2022/10/09 00:42:29;;;;;;;;;;;5.00;99.90;;;;;;4969160;28;19922;-74
2022/10/09 00:45:01;;;;;;;;;;;5.00;99.90;;;;;;4977652;28;19994;-74
2022/10/09 00:47:32;;;;;;;;;;;5.00;99.90;;;;;;4970218;28;19953;-74
2022/10/09 00:50:00;;;;;;;;;;;5.00;99.90;;;;;;4960759;28;20345;-74
2022/10/09 00:52:25;;;;;;;;;;;5.00;99.90;;;;;;4961428;28;19921;-73
2022/10/09 00:54:52;;;;;;;;;;;4.90;99.90;;;;;;4956331;28;19918;-74
2022/10/09 00:57:17;;;;;;;;;;;5.00;99.90;;;;;;4962659;28;19961;-74
2022/10/09 00:59:43;;;;;;;;;;;5.10;99.90;;;;;;4974285;28;19972;-74
2022/10/09 01:02:08;;;;;;;;;;;5.20;99.90;;;;;;4962631;28;19926;-74
2022/10/09 01:04:34;;;;;;;;;;;5.10;99.90;;;;;;4963282;28;19921;-74
2022/10/09 01:07:06;;;;;;;;;;;5.10;99.90;;;;;;4965222;28;19922;-74
2022/10/09 01:09:34;;;;;;;;;;;5.10;99.90;;;;;;4975313;28;20317;-74
2022/10/09 01:12:04;;;;;;;;;;;5.10;99.90;;;;;;4964793;28;19918;-74
2022/10/09 01:14:40;;;;;;;;;;;5.00;99.90;;;;;;4975808;28;19984;-74
2022/10/09 01:17:25;;;;;;;;;;;5.00;99.90;;;;;;4981951;28;19924;-74
2022/10/09 01:20:05;;;;;;;;;;;4.90;99.90;;;;;;4949430;28;19922;-74
2022/10/09 01:22:34;;;;;;;;;;;4.90;99.90;;;;;;4961649;28;20012;-74
2022/10/09 01:25:03;;;;;;;;;;;4.90;99.90;;;;;;4968549;28;19921;-73
2022/10/09 01:27:29;;;;;;;;;;;4.90;99.90;;;;;;4977829;28;19922;-74
2022/10/09 01:29:57;;;;;;;;;;;4.80;99.90;;;;;;4970067;28;19976;-74
2022/10/09 01:32:26;;;;;;;;;;;4.80;99.90;;;;;;4965303;28;20028;-74
2022/10/09 01:34:52;;;;;;;;;;;4.80;99.90;;;;;;4961399;28;20016;-74
2022/10/09 01:37:19;;;;;;;;;;;4.90;99.90;;;;;;4965588;28;19914;-73
2022/10/09 01:39:45;;;;;;;;;;;4.80;99.90;;;;;;4964075;28;19973;-74
2022/10/09 01:42:11;;;;;;;;;;;4.80;99.90;;;;;;4966268;28;20009;-72
2022/10/09 01:44:36;;;;;;;;;;;4.80;99.90;;;;;;4978025;28;20028;-74
2022/10/09 01:47:03;;;;;;;;;;;4.80;99.90;;;;;;4974281;28;20009;-74
2022/10/09 01:49:41;;;;;;;;;;;4.70;99.90;;;;;;4943918;28;19918;-74
2022/10/09 01:52:33;;;;;;;;;;;4.60;99.90;;;;;;4962222;28;20199;-74
2022/10/09 01:55:24;;;;;;;;;;;4.60;99.90;;;;;;4945276;28;20392;-73
2022/10/09 01:57:49;;;;;;;;;;;4.60;99.90;;;;;;4969496;28;19941;-74
2022/10/09 02:00:15;;;;;;;;;;;4.50;99.90;;;;;;4959432;28;19976;-74
2022/10/09 02:02:42;;;;;;;;;;;4.50;99.90;;;;;;4958802;28;19926;-74
2022/10/09 02:05:09;;;;;;;;;;;4.40;99.90;;;;;;4941970;28;20319;-74
2022/10/09 02:07:35;;;;;;;;;;;4.40;99.90;;;;;;4940955;29;20298;-74
2022/10/09 02:10:01;;;;;;;;;;;4.40;99.90;;;;;;4946731;28;19925;-74
2022/10/09 02:12:28;;;;;;;;;;;4.30;99.90;;;;;;4967056;28;19918;-73
2022/10/09 02:14:54;;;;;;;;;;;4.30;99.90;;;;;;4960306;28;19929;-75
2022/10/09 02:17:22;;;;;;;;;;;4.30;99.90;;;;;;4960328;28;20002;-74
2022/10/09 02:19:49;;;;;;;;;;;4.30;99.90;;;;;;4959212;28;19926;-74
2022/10/09 02:22:17;;;;;;;;;;;4.30;99.90;;;;;;4957457;28;19929;-74
2022/10/09 02:24:43;;;;;;;;;;;4.20;99.90;;;;;;4962427;28;19918;-74
2022/10/09 02:27:09;;;;;;;;;;;4.20;99.90;;;;;;4974625;28;20285;-74
2022/10/09 02:29:37;;;;;;;;;;;4.20;99.90;;;;;;4968686;28;19925;-74
2022/10/09 02:32:02;;;;;;;;;;;4.30;99.90;;;;;;4959795;28;19925;-74
2022/10/09 02:34:28;;;;;;;;;;;4.30;99.90;;;;;;4961538;28;20313;-74
2022/10/09 02:36:53;;;;;;;;;;;4.30;99.90;;;;;;4961248;28;19925;-74
2022/10/09 02:39:19;;;;;;;;;;;4.30;99.90;;;;;;4951098;28;19932;-74
2022/10/09 02:41:44;;;;;;;;;;;4.30;99.90;;;;;;4965059;28;20424;-74
2022/10/09 02:44:10;;;;;;;;;;;4.20;99.90;;;;;;4958804;28;20476;-73
2022/10/09 02:46:37;;;;;;;;;;;4.20;99.90;;;;;;4960979;28;19926;-74
2022/10/09 02:49:03;;;;;;;;;;;4.20;99.90;;;;;;4962561;28;19994;-74
2022/10/09 02:51:28;;;;;;;;;;;4.20;99.90;;;;;;4961997;28;20383;-73
2022/10/09 02:53:54;;;;;;;;;;;4.20;99.90;;;;;;4962873;28;19977;-73
2022/10/09 02:56:22;;;;;;;;;;;4.20;99.90;;;;;;4955700;28;20377;-74
2022/10/09 02:58:48;;;;;;;;;;;4.20;99.90;;;;;;4981100;28;19922;-74
2022/10/09 03:01:13;;;;;;;;;;;4.20;99.90;;;;;;4974184;28;19955;-74
2022/10/09 03:03:39;;;;;;;;;;;4.30;99.90;;;;;;4961436;28;19922;-73
2022/10/09 03:06:08;;;;;;;;;;;4.20;99.90;;;;;;4961657;28;20208;-75
2022/10/09 03:08:34;;;;;;;;;;;4.30;99.90;;;;;;4982542;28;19918;-74
2022/10/09 03:10:59;;;;;;;;;;;4.20;99.90;;;;;;4978173;28;19914;-74
2022/10/09 03:13:25;;;;;;;;;;;4.20;99.90;;;;;;4960949;28;20411;-74
2022/10/09 03:15:50;;;;;;;;;;;4.10;99.90;;;;;;4978230;28;19914;-74
2022/10/09 03:18:16;;;;;;;;;;;4.10;99.90;;;;;;4980972;28;19940;-74
2022/10/09 03:20:41;;;;;;;;;;;4.20;99.90;;;;;;4980228;28;19928;-74
2022/10/09 03:23:07;;;;;;;;;;;4.20;99.90;;;;;;4962038;28;20580;-74
2022/10/09 03:25:32;;;;;;;;;;;4.20;99.90;;;;;;4974055;28;19930;-74
2022/10/09 03:27:58;;;;;;;;;;;4.20;99.90;;;;;;4979372;28;20353;-73
2022/10/09 03:30:23;;;;;;;;;;;4.20;99.90;;;;;;4943720;29;19928;-74
2022/10/09 03:32:49;;;;;;;;;;;4.20;99.90;;;;;;4957300;28;19929;-74
2022/10/09 03:35:14;;;;;;;;;;;4.20;99.90;;;;;;4961487;28;20354;-73
2022/10/09 03:37:40;;;;;;;;;;;4.20;99.90;;;;;;4972523;28;20189;-74
2022/10/09 03:40:05;;;;;;;;;;;4.30;99.90;;;;;;4966938;28;19923;-74
2022/10/09 03:42:31;;;;;;;;;;;4.20;99.90;;;;;;4964704;28;19922;-75
2022/10/09 03:44:59;;;;;;;;;;;4.20;99.90;;;;;;4950335;28;19957;-75
2022/10/09 03:47:25;;;;;;;;;;;4.20;99.90;;;;;;4979195;28;19977;-74
2022/10/09 03:49:50;;;;;;;;;;;4.20;99.90;;;;;;4972940;28;19969;-74
2022/10/09 03:52:16;;;;;;;;;;;4.20;99.90;;;;;;4966966;28;20408;-74
2022/10/09 03:54:41;;;;;;;;;;;4.20;99.90;;;;;;4954014;28;19918;-75
2022/10/09 03:57:07;;;;;;;;;;;4.20;99.90;;;;;;4977089;28;19971;-74
2022/10/09 03:59:32;;;;;;;;;;;4.10;99.90;;;;;;4979322;28;20373;-74
2022/10/09 04:01:58;;;;;;;;;;;4.10;99.90;;;;;;4967680;28;19926;-73
2022/10/09 04:04:23;;;;;;;;;;;4.10;99.90;;;;;;4942396;29;19930;-74
2022/10/09 04:06:49;;;;;;;;;;;4.10;99.90;;;;;;4941712;29;20353;-74
2022/10/09 04:09:14;;;;;;;;;;;4.00;99.90;;;;;;4942878;29;19922;-74
2022/10/09 04:11:39;;;;;;;;;;;4.00;99.90;;;;;;4968133;28;19945;-73
2022/10/09 04:14:05;;;;;;;;;;;4.10;99.90;;;;;;4960813;28;19918;-75
2022/10/09 04:16:30;;;;;;;;;;;4.10;99.90;;;;;;4956673;28;20479;-73
2022/10/09 04:18:56;;;;;;;;;;;4.10;99.90;;;;;;4959071;28;19945;-75
2022/10/09 04:21:21;;;;;;;;;;;4.10;99.90;;;;;;4969363;28;19929;-73
2022/10/09 04:23:47;;;;;;;;;;;4.20;99.90;;;;;;4959337;28;19922;-74
2022/10/09 04:26:12;;;;;;;;;;;4.30;99.90;;;;;;4968357;28;19929;-74
2022/10/09 04:28:38;;;;;;;;;;;4.40;99.90;;;;;;4961689;28;19925;-74
2022/10/09 04:31:03;;;;;;;;;;;4.40;99.90;;;;;;4971079;28;19921;-74
2022/10/09 04:33:29;;;;;;;;;;;4.50;99.90;;;;;;4974134;28;19944;-74
2022/10/09 04:35:55;;;;;;;;;;;4.40;99.90;;;;;;4961417;28;19914;-74
2022/10/09 04:38:21;;;;;;;;;;;4.40;99.90;;;;;;4964557;28;19914;-74
2022/10/09 04:40:57;;;;;;;;;;;4.30;99.90;;;;;;4978789;28;19975;-74
2022/10/09 04:43:22;;;;;;;;;;;4.20;99.90;;;;;;4951356;28;21276;-75
2022/10/09 04:45:48;;;;;;;;;;;4.20;99.90;;;;;;4980127;28;20402;-76
2022/10/09 04:48:13;;;;;;;;;;;4.10;99.90;;;;;;4983114;28;20258;-75
2022/10/09 04:50:39;;;;;;;;;;;4.00;99.90;;;;;;4974610;28;19918;-74
2022/10/09 04:53:04;;;;;;;;;;;4.00;99.90;;;;;;4960899;28;20326;-74
2022/10/09 04:55:30;;;;;;;;;;;4.00;99.90;;;;;;4943559;29;19972;-74
2022/10/09 04:57:55;;;;;;;;;;;4.00;99.90;;;;;;4961085;28;19918;-74
2022/10/09 05:00:21;;;;;;;;;;;3.90;99.90;;;;;;4971436;28;20382;-75
2022/10/09 05:02:46;;;;;;;;;;;3.90;99.90;;;;;;4960186;28;19921;-75
2022/10/09 05:05:12;;;;;;;;;;;3.90;99.90;;;;;;4965415;28;19992;-74
2022/10/09 05:07:37;;;;;;;;;;;3.90;99.90;;;;;;4981983;28;20004;-74
2022/10/09 05:10:03;;;;;;;;;;;3.80;99.90;;;;;;4981462;28;19932;-74
2022/10/09 05:12:29;;;;;;;;;;;3.80;99.90;;;;;;4960856;28;20398;-74
2022/10/09 05:14:54;;;;;;;;;;;3.80;99.90;;;;;;4975090;28;19926;-74
2022/10/09 05:17:20;;;;;;;;;;;3.70;99.90;;;;;;4980612;28;20012;-75
2022/10/09 05:19:45;;;;;;;;;;;3.60;99.90;;;;;;4981524;28;20032;-75
2022/10/09 05:22:11;;;;;;;;;;;3.60;99.90;;;;;;4974006;28;19921;-74
2022/10/09 05:24:36;;;;;;;;;;;3.50;99.90;;;;;;4981971;28;20004;-75
2022/10/09 05:27:02;;;;;;;;;;;3.50;99.90;;;;;;4973312;28;20382;-74
2022/10/09 05:29:27;;;;;;;;;;;3.50;99.90;;;;;;4975608;28;19917;-75
2022/10/09 05:31:53;;;;;;;;;;;3.50;99.90;;;;;;4960471;28;19937;-74
2022/10/09 05:34:18;;;;;;;;;;;3.50;99.90;;;;;;4960439;28;19914;-74
2022/10/09 05:36:44;;;;;;;;;;;3.50;99.90;;;;;;4948267;28;19922;-74
2022/10/09 05:39:09;;;;;;;;;;;3.50;99.90;;;;;;4973604;28;20232;-75
2022/10/09 05:41:35;;;;;;;;;;;3.50;99.90;;;;;;4960496;28;19925;-75
2022/10/09 05:44:01;;;;;;;;;;;3.60;99.90;;;;;;4960047;28;19918;-74
2022/10/09 05:46:28;;;;;;;;;;;3.70;99.90;;;;;;4957974;28;20481;-75
2022/10/09 05:48:55;;;;;;;;;;;3.70;99.90;;;;;;4968310;28;19976;-74
2022/10/09 05:51:28;;;;;;;;;;;3.70;99.90;;;;;;4973946;28;20916;-74
2022/10/09 05:53:54;;;;;;;;;;;3.80;99.90;;;;;;4944009;28;19914;-74
2022/10/09 05:56:23;;;;;;;;;;;3.80;99.90;;;;;;4976609;28;19940;-74
2022/10/09 05:58:53;;;;;;;;;;;3.80;99.90;;;;;;4981199;28;19917;-74
2022/10/09 06:01:19;;;;;;;;;;;3.90;99.90;;;;;;4963297;28;19996;-75
2022/10/09 06:03:49;;;;;;;;;;;3.90;99.90;;;;;;4955101;28;20398;-75
2022/10/09 06:06:15;;;;;;;;;;;3.90;99.90;;;;;;4959856;28;19972;-75
2022/10/09 06:08:41;;;;;;;;;;;4.00;99.90;;;;;;4959901;28;20254;-75
2022/10/09 06:11:07;;;;;;;;;;;4.00;99.90;;;;;;4976785;28;19913;-75
2022/10/09 06:13:33;;;;;;;;;;;4.00;99.90;;;;;;4974038;28;19945;-74
2022/10/09 06:15:58;;;;;;;;;;;4.00;99.90;;;;;;4966477;28;20515;-74
2022/10/09 06:18:24;;;;;;;;;;;4.00;99.90;;;;;;4954391;28;20001;-74
2022/10/09 06:20:57;;;;;;;;;;;3.90;99.90;;;;;;4954078;28;20080;-74
2022/10/09 06:23:22;;;;;;;;;;;4.00;99.90;;;;;;4954632;28;20340;-75
2022/10/09 06:25:51;;;;;;;;;;;4.10;99.90;;;;;;4951270;28;19922;-74
2022/10/09 06:28:17;;;;;;;;;;;4.20;99.90;;;;;;4951462;28;19984;-74
2022/10/09 06:30:42;;;;;;;;;;;4.40;99.90;;;;;;4955622;28;19918;-74
2022/10/09 06:33:08;;;;;;;;;;;4.50;99.90;;;;;;4959994;28;19925;-74
2022/10/09 06:35:33;;;;;;;;;;;4.50;99.90;;;;;;4968486;28;19926;-74
2022/10/09 06:37:59;;;;;;;;;;;4.60;99.90;;;;;;4967896;28;19928;-75
2022/10/09 06:40:24;;;;;;;;;;;4.50;99.90;;;;;;4964441;28;20025;-74
2022/10/09 06:42:50;;;;;;;;;;;4.60;99.90;;;;;;4979714;28;19922;-74
2022/10/09 06:45:15;;;;;;;;;;;4.70;99.90;;;;;;4976232;28;19918;-74
2022/10/09 06:47:41;;;;;;;;;;;4.70;99.90;;;;;;4967646;28;20009;-74
2022/10/09 06:50:07;;;;;;;;;;;4.80;99.90;;;;;;4960004;28;20723;-74
2022/10/09 06:52:32;;;;;;;;;;;4.70;99.90;;;;;;4960530;28;19928;-74
2022/10/09 06:54:58;;;;;;;;;;;5.00;99.90;;;;;;4958697;28;19914;-75
2022/10/09 06:57:23;;;;;;;;;;;5.10;99.90;;;;;;4966033;28;19921;-74
2022/10/09 06:59:49;;;;;;;;;;;5.10;99.90;;;;;;4958933;28;19945;-74
2022/10/09 07:02:14;;;;;;;;;;;5.20;99.90;;;;;;4614859;28;10000232;-73
2022/10/09 07:04:40;;;;;;;;;;;5.40;99.90;;;;;;4955535;28;19922;-74
2022/10/09 07:07:05;;;;;;;;;;;5.50;99.90;;;;;;4948515;28;19929;-74
2022/10/09 07:09:31;;;;;;;;;;;5.70;99.90;;;;;;4952992;28;19926;-74
2022/10/09 07:11:56;;;;;;;;;;;5.80;99.90;;;;;;4959928;28;20431;-74
2022/10/09 07:14:22;;;;;;;;;;;5.90;99.90;;;;;;4973716;28;19914;-74
2022/10/09 07:16:47;;;;;;;;;;;6.10;99.90;;;;;;4965662;28;20548;-75
2022/10/09 07:19:13;;;;;;;;;;;6.20;99.90;;;;;;4956394;28;19929;-74
2022/10/09 07:21:41;;;;;;;;;;;6.40;99.90;;;;;;4952223;28;20189;-75
2022/10/09 07:24:06;;;;;;;;;;;6.50;99.90;;;;;;4950764;28;20223;-75
2022/10/09 07:26:33;;;;;;;;;;;6.60;99.90;;;;;;4949897;28;19942;-74
2022/10/09 07:28:59;;;;;;;;;;;6.60;99.90;;;;;;4956434;28;19969;-74
2022/10/09 07:31:25;;;;;;;;;;;6.70;99.90;;;;;;4965204;28;19922;-73
2022/10/09 07:33:51;;;;;;;;;;;6.90;99.90;;;;;;4969620;28;19957;-73
2022/10/09 07:36:17;;;;;;;;;;;6.90;99.90;;;;;;4965457;28;20796;-73
2022/10/09 07:38:43;;;;;;;;;;;7.00;99.90;;;;;;4953246;28;19941;-73
2022/10/09 07:41:11;;;;;;;;;;;7.10;99.90;;;;;;4932746;28;19970;-73
2022/10/09 07:43:37;;;;;;;;;;;7.20;99.90;;;;;;4937565;28;20464;-74
2022/10/09 07:46:03;;;;;;;;;;;7.40;99.90;;;;;;4948827;28;19918;-73
2022/10/09 07:48:29;;;;;;;;;;;7.50;99.90;;;;;;4939860;28;20281;-73
2022/10/09 07:50:55;;;;;;;;;;;7.60;99.90;;;;;;4962097;28;19925;-74
2022/10/09 07:53:20;;;;;;;;;;;7.70;99.90;;;;;;4954877;28;20441;-73
2022/10/09 07:55:47;;;;;;;;;;;8.20;99.90;;;;;;4952326;28;19922;-73
2022/10/09 07:58:13;;;;;;;;;;;9.70;99.90;;;;;;4954569;28;20197;-74
2022/10/09 08:00:38;;;;;;;;;;;12.20;99.90;;;;;;4954305;28;20035;-74
2022/10/09 08:03:04;;;;;;;;;;;15.10;99.90;;;;;;4954357;28;20105;-74
2022/10/09 08:05:29;;;;;;;;;;;17.90;97.70;;;;;;4951418;28;19949;-75
2022/10/09 08:07:55;;;;;;;;;;;20.20;87.50;;;;;;4954139;28;19918;-74
2022/10/09 08:10:20;;;;;;;;;;;21.70;73.50;;;;;;4959356;28;20437;-75
2022/10/09 08:12:46;;;;;;;;;;;22.40;69.40;;;;;;4954648;28;20537;-74
2022/10/09 08:15:12;;;;;;;;;;;23.90;64.30;;;;;;4956462;28;20149;-75
2022/10/09 08:17:37;;;;;;;;;;;25.30;59.10;;;;;;4953308;28;19917;-75
2022/10/09 08:20:03;;;;;;;;;;;26.10;56.10;;;;;;4961013;28;19918;-75
2022/10/09 08:22:29;;;;;;;;;;;27.00;53.30;;;;;;4954877;28;19922;-74
2022/10/09 08:24:54;;;;;;;;;;;27.40;53.20;;;;;;4951080;28;19965;-75
2022/10/09 08:27:20;;;;;;;;;;;27.00;51.90;;;;;;4961305;28;19943;-74
2022/10/09 08:29:45;;;;;;;;;;;27.10;52.10;;;;;;4956865;28;19918;-75
2022/10/09 08:32:11;;;;;;;;;;;27.30;53.10;;;;;;4954409;28;19922;-76
2022/10/09 08:34:36;;;;;;;;;;;27.70;52.60;;;;;;4956127;28;19918;-75
2022/10/09 08:37:01;;;;;;;;;;;27.60;52.10;;;;;;4958770;28;19973;-75
2022/10/09 08:39:29;;;;;;;;;;;27.50;52.40;;;;;;4955998;28;19924;-76
2022/10/09 08:41:57;;;;;;;;;;;28.20;50.70;;;;;;4972458;28;20389;-76
2022/10/09 08:44:28;;;;;;;;;;;28.00;51.50;;;;;;4966820;28;20090;-75
2022/10/09 08:47:02;;;;;;;;;;;28.50;50.90;;;;;;4970350;28;19922;-75
2022/10/09 08:49:30;;;;;;;;;;;28.30;48.50;;;;;;4964544;28;20496;-76
2022/10/09 08:51:59;;;;;;;;;;;28.30;50.70;;;;;;4962152;28;20433;-75
2022/10/09 08:54:30;;;;;;;;;;;27.30;49.90;;;;;;4948245;28;20176;-76
2022/10/09 08:56:57;;;;;;;;;;;26.60;51.60;;;;;;4961385;28;20451;-76
2022/10/09 08:59:22;;;;;;;;;;;26.80;52.20;;;;;;4961502;28;19915;-76
2022/10/09 09:01:51;;;;;;;;;;;27.20;52.10;;;;;;4959986;28;20379;-76
2022/10/09 09:04:35;;;;;;;;;;;26.80;50.40;;;;;;4965906;28;20016;-75
2022/10/09 09:07:16;;;;;;;;;;;26.90;49.80;;;;;;4958251;28;19914;-76
2022/10/09 09:09:42;;;;;;;;;;;26.60;53.30;;;;;;4960500;28;19918;-75
2022/10/09 09:12:10;;;;;;;;;;;27.10;52.50;;;;;;4975189;28;19941;-75
2022/10/09 09:14:42;;;;;;;;;;;27.70;51.40;;;;;;4956284;28;19953;-73
2022/10/09 09:17:23;;;;;;;;;;;28.30;49.00;;;;;;4971792;28;19924;-74
2022/10/09 09:20:01;;;;;;;;;;;28.50;48.50;;;;;;4952977;28;20214;-74
2022/10/09 09:22:26;;;;;;;;;;;28.90;47.40;;;;;;4978532;28;19933;-74
2022/10/09 09:24:54;;;;;;;;;;;28.50;47.70;;;;;;4948418;28;19922;-74
2022/10/09 09:27:20;;;;;;;;;;;28.80;47.50;;;;;;4965399;28;20032;-77
2022/10/09 09:29:49;;;;;;;;;;;28.90;46.90;;;;;;4960782;28;19922;-74
2022/10/09 09:32:16;;;;;;;;;;;28.80;48.10;;;;;;4968770;28;20031;-73
2022/10/09 09:34:43;;;;;;;;;;;28.90;48.20;;;;;;4963993;28;19957;-74
2022/10/09 09:37:12;;;;;;;;;;;28.90;45.40;;;;;;4960056;28;19918;-75
2022/10/09 09:39:37;;;;;;;;;;;29.40;45.80;;;;;;4962040;28;19918;-73
2022/10/09 09:42:06;;;;;;;;;;;29.30;46.40;;;;;;4969670;28;20305;-73
2022/10/09 09:44:32;;;;;;;;;;;29.10;45.30;;;;;;4964480;28;20721;-74
2022/10/09 09:46:57;;;;;;;;;;;29.50;43.70;;;;;;4963343;28;19922;-74
2022/10/09 09:49:26;;;;;;;;;;;29.60;44.30;;;;;;4960767;28;19922;-74
2022/10/09 09:51:53;;;;;;;;;;;29.20;44.50;;;;;;4960948;28;20033;-73
2022/10/09 09:54:23;;;;;;;;;;;29.30;43.50;;;;;;4963975;28;20254;-74
2022/10/09 09:56:50;;;;;;;;;;;28.90;46.10;;;;;;4960849;28;19925;-73
2022/10/09 09:59:31;;;;;;;;;;;28.60;45.40;;;;;;4964602;28;19929;-71
2022/10/09 10:02:00;;;;;;;;;;;28.20;46.80;;;;;;4961039;28;19932;-74
2022/10/09 10:04:29;;;;;;;;;;;27.90;47.40;;;;;;4955945;28;20069;-74
2022/10/09 10:06:54;;;;;;;;;;;28.90;46.00;;;;;;4961288;28;19922;-74
2022/10/09 10:09:20;;;;;;;;;;;29.80;45.40;;;;;;4967820;28;20349;-74
2022/10/09 10:11:47;;;;;;;;;;;28.90;44.40;;;;;;4978754;28;20008;-73
2022/10/09 10:14:14;;;;;;;;;;;28.60;44.60;;;;;;4978742;28;20029;-73
2022/10/09 10:16:40;;;;;;;;;;;28.40;43.00;;;;;;4965679;28;20326;-73
2022/10/09 10:19:06;;;;;;;;;;;28.80;42.10;;;;;;4960760;28;19918;-72
2022/10/09 10:21:46;;;;;;;;;;;27.80;42.70;;;;;;4963456;28;20416;-75
2022/10/09 10:24:14;;;;;;;;;;;26.00;46.50;;;;;;4960791;28;19938;-75
2022/10/09 10:26:46;;;;;;;;;;;24.40;51.80;;;;;;4619853;28;10000470;-74
2022/10/09 10:29:17;;;;;;;;;;;24.00;53.10;;;;;;4960071;28;19918;-77
2022/10/09 10:31:42;;;;;;;;;;;24.70;52.50;;;;;;4957296;28;19926;-76
2022/10/09 10:34:13;;;;;;;;;;;25.70;49.80;;;;;;4950035;28;20014;-76
2022/10/09 10:36:39;;;;;;;;;;;27.00;50.50;;;;;;4941705;28;19915;-73
2022/10/09 10:39:10;;;;;;;;;;;27.80;47.90;;;;;;4941552;28;20217;-73
2022/10/09 10:41:38;;;;;;;;;;;27.90;44.60;;;;;;4967148;28;20109;-73
2022/10/09 10:44:14;;;;;;;;;;;28.20;45.40;;;;;;4964474;28;20292;-72
2022/10/09 10:46:53;;;;;;;;;;;28.60;46.20;;;;;;4973086;28;19925;-73
2022/10/09 10:49:20;;;;;;;;;;;28.80;45.10;;;;;;4961100;28;19917;-74
2022/10/09 10:51:45;;;;;;;;;;;28.70;45.60;;;;;;4971588;28;20498;-74
2022/10/09 10:54:17;;;;;;;;;;;28.50;42.20;;;;;;4980940;28;20046;-73
2022/10/09 10:56:54;;;;;;;;;;;28.30;45.80;;;;;;4950990;28;19930;-73
2022/10/09 10:59:39;;;;;;;;;;;28.30;44.60;;;;;;4955123;28;20351;-74
2022/10/09 11:02:22;;;;;;;;;;;28.40;44.50;;;;;;4960805;28;19971;-73
2022/10/09 11:05:07;;;;;;;;;;;28.10;45.90;;;;;;4969228;28;20029;-73
2022/10/09 11:07:42;;;;;;;;;;;28.10;44.30;;;;;;4957651;28;19973;-73
2022/10/09 11:10:30;;;;;;;;;;;28.10;43.60;;;;;;4970234;28;20378;-74
2022/10/09 11:12:59;;;;;;;;;;;27.40;43.70;;;;;;4980666;28;20381;-77
2022/10/09 11:15:37;;;;;;;;;;;26.70;47.30;;;;;;4975195;28;20080;-75
2022/10/09 11:18:31;;;;;;;;;;;25.70;48.20;;;;;;4979014;28;19918;-74
2022/10/09 11:20:57;;;;;;;;;;;24.30;49.10;;;;;;4939761;28;19934;-75
2022/10/09 11:23:34;;;;;;;;;;;23.50;50.00;;;;;;4966551;28;19918;-75
2022/10/09 11:26:13;;;;;;;;;;;23.00;51.00;;;;;;4942431;28;19969;-76
2022/10/09 11:28:40;;;;;;;;;;;22.60;51.50;;;;;;4944547;28;19917;-75
2022/10/09 11:31:15;;;;;;;;;;;22.40;53.10;;;;;;4977680;28;19968;-76
2022/10/09 11:33:44;;;;;;;;;;;21.90;56.30;;;;;;4960935;28;19934;-75
2022/10/09 11:36:18;;;;;;;;;;;21.80;54.90;;;;;;4954158;28;19937;-75
2022/10/09 11:38:57;;;;;;;;;;;21.60;55.90;;;;;;4959310;28;20387;-77
2022/10/09 11:41:24;;;;;;;;;;;21.60;58.60;;;;;;4970048;28;19937;-76
2022/10/09 11:43:49;;;;;;;;;;;21.70;56.40;;;;;;4960077;28;19922;-75
2022/10/09 11:46:32;;;;;;;;;;;21.40;57.00;;;;;;4960285;28;19942;-76
2022/10/09 11:49:04;;;;;;;;;;;21.30;55.80;;;;;;4960477;28;19993;-76
2022/10/09 11:51:36;;;;;;;;;;;21.30;57.10;;;;;;4959652;28;19918;-75
2022/10/09 11:54:03;;;;;;;;;;;21.20;58.90;;;;;;4960230;28;19918;-75
2022/10/09 11:56:30;;;;;;;;;;;21.40;61.20;;;;;;4955862;28;20282;-75
2022/10/09 11:59:00;;;;;;;;;;;21.50;56.90;;;;;;4957758;28;19965;-76
2022/10/09 12:01:46;;;;;;;;;;;21.40;57.70;;;;;;4957491;28;19980;-75
2022/10/09 12:04:11;;;;;;;;;;;21.40;61.00;;;;;;4615131;28;10000881;-76
2022/10/09 12:06:44;;;;;;;;;;;21.50;57.50;;;;;;4959417;28;19929;-75
2022/10/09 12:09:18;;;;;;;;;;;21.20;58.60;;;;;;4955538;28;19919;-76
2022/10/09 12:11:52;;;;;;;;;;;20.90;58.90;;;;;;4968912;28;19924;-74
2022/10/09 12:14:23;;;;;;;;;;;20.80;63.80;;;;;;4969085;28;20272;-75
2022/10/09 12:16:48;;;;;;;;;;;20.80;59.00;;;;;;4960005;28;19925;-75
2022/10/09 12:19:16;;;;;;;;;;;20.70;58.70;;;;;;4965212;28;19922;-75
2022/10/09 12:21:47;;;;;;;;;;;20.70;61.50;;;;;;4960810;28;20036;-75
2022/10/09 12:24:15;;;;;;;;;;;20.70;60.50;;;;;;4959487;28;19922;-76
2022/10/09 12:26:41;;;;;;;;;;;20.70;59.70;;;;;;4967621;28;20406;-75
2022/10/09 12:29:13;;;;;;;;;;;20.70;60.30;;;;;;4975057;28;19914;-75
2022/10/09 12:31:40;;;;;;;;;;;20.60;62.10;;;;;;4963163;28;19918;-75
2022/10/09 12:34:17;;;;;;;;;;;20.40;58.50;;;;;;4958671;28;19918;-75
2022/10/09 12:36:43;;;;;;;;;;;20.50;60.50;;;;;;4963210;28;19953;-75
2022/10/09 12:39:12;;;;;;;;;;;20.30;60.20;;;;;;4980348;28;20128;-75
2022/10/09 12:41:39;;;;;;;;;;;20.30;61.90;;;;;;4965747;28;19923;-76
2022/10/09 12:44:10;;;;;;;;;;;20.20;60.40;;;;;;4964582;28;20336;-74
2022/10/09 12:46:37;;;;;;;;;;;20.00;59.70;;;;;;4960598;28;19918;-76
2022/10/09 12:49:04;;;;;;;;;;;20.00;62.30;;;;;;4961182;28;19926;-75
2022/10/09 12:51:31;;;;;;;;;;;20.00;61.30;;;;;;4958667;28;20433;-75
2022/10/09 12:53:56;;;;;;;;;;;20.00;60.30;;;;;;4962687;28;20013;-76
2022/10/09 12:56:24;;;;;;;;;;;19.90;60.00;;;;;;4957563;28;20193;-75
2022/10/09 12:58:50;;;;;;;;;;;19.90;61.20;;;;;;4964766;28;19945;-75
2022/10/09 13:01:16;;;;;;;;;;;19.80;61.10;;;;;;4964855;28;20311;-74
2022/10/09 13:03:43;;;;;;;;;;;19.70;61.30;;;;;;4965659;28;20143;-76
2022/10/09 13:06:19;;;;;;;;;;;19.70;59.30;;;;;;4978057;28;19922;-75
2022/10/09 13:08:50;;;;;;;;;;;19.60;60.40;;;;;;4974089;28;20442;-75
2022/10/09 13:11:15;;;;;;;;;;;19.60;61.60;;;;;;4968509;28;20004;-75
2022/10/09 13:13:40;;;;;;;;;;;19.60;60.40;;;;;;4980304;28;20702;-75
2022/10/09 13:16:08;;;;;;;;;;;19.60;62.30;;;;;;4955562;28;19922;-74
2022/10/09 13:18:35;;;;;;;;;;;19.70;60.20;;;;;;4964689;28;20431;-76
2022/10/09 13:21:02;;;;;;;;;;;19.60;61.60;;;;;;4970894;28;19976;-75
2022/10/09 13:23:32;;;;;;;;;;;19.70;61.90;;;;;;4966725;28;19958;-75
2022/10/09 13:25:58;;;;;;;;;;;19.60;62.40;;;;;;4962650;28;19918;-75
2022/10/09 13:28:23;;;;;;;;;;;19.60;61.30;;;;;;4963634;28;20449;-74
2022/10/09 13:30:49;;;;;;;;;;;19.60;61.00;;;;;;4969272;28;20021;-75
2022/10/09 13:33:15;;;;;;;;;;;19.40;59.50;;;;;;4973644;28;19922;-76
2022/10/09 13:35:40;;;;;;;;;;;19.40;62.10;;;;;;4962110;28;19922;-75
2022/10/09 13:38:06;;;;;;;;;;;19.40;60.70;;;;;;4972906;28;19970;-75
2022/10/09 13:40:31;;;;;;;;;;;19.20;62.00;;;;;;4963285;28;20354;-75
2022/10/09 13:43:00;;;;;;;;;;;19.10;62.20;;;;;;4964106;28;20137;-75
2022/10/09 13:45:25;;;;;;;;;;;19.00;61.80;;;;;;4966543;28;19922;-74
2022/10/09 13:47:51;;;;;;;;;;;19.00;63.30;;;;;;4962495;28;20361;-75
2022/10/09 13:50:16;;;;;;;;;;;18.70;62.20;;;;;;4963285;28;19919;-75
2022/10/09 13:52:42;;;;;;;;;;;18.60;64.10;;;;;;4970182;28;20470;-75
2022/10/09 13:55:08;;;;;;;;;;;18.70;63.10;;;;;;4963067;28;19976;-75
2022/10/09 13:57:34;;;;;;;;;;;18.70;62.70;;;;;;4959747;28;20891;-74
2022/10/09 13:59:59;;;;;;;;;;;18.70;64.20;;;;;;4965070;28;20012;-74
2022/10/09 14:02:25;;;;;;;;;;;18.70;61.00;;;;;;4961186;28;19925;-74
2022/10/09 14:04:50;;;;;;;;;;;18.80;62.10;;;;;;4977653;28;19940;-75
2022/10/09 14:07:16;;;;;;;;;;;18.70;62.10;;;;;;4966370;28;20345;-75
2022/10/09 14:09:41;;;;;;;;;;;18.80;61.80;;;;;;4959470;28;21911;-78
2022/10/09 14:12:07;;;;;;;;;;;18.80;60.80;;;;;;4966336;28;20032;-75
2022/10/09 14:14:33;;;;;;;;;;;18.70;59.90;;;;;;4968727;28;19922;-75
2022/10/09 14:16:58;;;;;;;;;;;18.80;59.50;;;;;;4960270;28;20002;-76
2022/10/09 14:19:26;;;;;;;;;;;18.80;61.10;;;;;;4967831;28;20350;-75
2022/10/09 14:21:55;;;;;;;;;;;18.60;55.80;;;;;;4960640;28;19938;-75
2022/10/09 14:24:20;;;;;;;;;;;18.70;57.80;;;;;;4962106;28;19926;-75
2022/10/09 14:26:46;;;;;;;;;;;18.50;55.40;;;;;;4967764;28;19961;-75